UWKE 181000Z 03004MPS CAVOK 19/12 Q1009 R03/090070 NOSIG RMK QFE740/0986
QNH:(hPa/inHg/mmHg)1009 / 29.8 / 757
QFE:(hPa/inHg/mmHg)985 / 29.09 / 739
Temperature19
Dew Point12
Visibility> 10000
WeatherCAVOK
Cloud Cover
Transition Height700 m./3000 ft.
Transition LevelFL50
SQUAWK